^^
Datos históricos de la estación: Murcia-Puente Tocinos
Diario Informe para Febrero 1, 2019 Unidades:  Ambas    Inglés   Métrico
Diario Semanal Mensual Anual Configurable
  Máximo: Mínimo: Media:
Temperatura: 68.2 °F /  20.1 °C 54.5 °F /  12.5 °C 62.8 °F /  17.1 °C
Punto de rocio: 50.5 °F /  10.3 °C 27.3 °F /  -2.6 °C 41 °F /  5 °C
Humedad: 65% 24% 46%
Velocidad viento: 18.1mph /  29.1km/h - 10mph /  16.1km/h
Racha viento: 33.4mph /  53.7km/h - -
Viento- - SW
Presión: 29.6 in /  1000.6 hPa 29.4 in /  993.8 hPa -
Precipitación: 0 in /  0.0 mm    
Historical Graphs
 
 
Tabla de datos para Febrero 1, 2019
Hora Temperatura Punto de rocio Presión Viento Velocidad viento Racha viento Humedad Intensidad lluvia(por hora) Nubes
00:05 64 °F /  17.8 °C 43.9 °F /  6.6 °C 29.6in /  1000.6hPa SW 8.1mph /  13.0km/h 14mph /  22.5km/h 48% 0in /  0.0mm CLR
00:09 64.2 °F /  17.9 °C 43.5 °F /  6.4 °C 29.6in /  1000.6hPa SSW 9.2mph /  14.8km/h 15.9mph /  25.6km/h 47% 0in /  0.0mm CLR
00:15 64.2 °F /  17.9 °C 43.5 °F /  6.4 °C 29.6in /  1000.6hPa SSW 9.2mph /  14.8km/h 16.1mph /  25.9km/h 47% 0in /  0.0mm CLR
00:20 64.2 °F /  17.9 °C 44.1 °F /  6.7 °C 29.5in /  1000.4hPa SSW 9.7mph /  15.6km/h 16.1mph /  25.9km/h 48% 0in /  0.0mm CLR
00:25 64.2 °F /  17.9 °C 44.1 °F /  6.7 °C 29.5in /  1000.4hPa SSW 9.7mph /  15.6km/h 13.8mph /  22.2km/h 48% 0in /  0.0mm CLR
00:30 64.4 °F /  18.0 °C 44.2 °F /  6.8 °C 29.5in /  1000.4hPa SSW 9mph /  14.5km/h 14mph /  22.5km/h 48% 0in /  0.0mm CLR
00:35 64.2 °F /  17.9 °C 44.1 °F /  6.7 °C 29.5in /  1000.1hPa SSW 9mph /  14.5km/h 13mph /  20.9km/h 48% 0in /  0.0mm CLR
00:40 64.2 °F /  17.9 °C 44.1 °F /  6.7 °C 29.5in /  1000.1hPa SSW 6mph /  9.7km/h 12mph /  19.3km/h 48% 0in /  0.0mm CLR
00:45 64 °F /  17.8 °C 43.9 °F /  6.6 °C 29.5in /  1000.1hPa SW 6.2mph /  10.0km/h 8.1mph /  13.0km/h 48% 0in /  0.0mm CLR
00:50 64 °F /  17.8 °C 44.4 °F /  6.9 °C 29.5in /  999.9hPa SSW 4.3mph /  6.9km/h 11.5mph /  18.5km/h 49% 0in /  0.0mm CLR
00:55 64.2 °F /  17.9 °C 44.1 °F /  6.7 °C 29.5in /  999.9hPa SW 4.3mph /  6.9km/h 17.3mph /  27.8km/h 48% 0in /  0.0mm CLR
01:00 64.6 °F /  18.1 °C 45 °F /  7.2 °C 29.5in /  999.9hPa SW 10mph /  16.1km/h 21mph /  33.8km/h 49% 0in /  0.0mm CLR
01:05 64.6 °F /  18.1 °C 45 °F /  7.2 °C 29.5in /  999.6hPa SSW 10mph /  16.1km/h 17.3mph /  27.8km/h 49% 0in /  0.0mm CLR
01:10 64.6 °F /  18.1 °C 45 °F /  7.2 °C 29.5in /  999.6hPa SW 11.2mph /  18.0km/h 20.7mph /  33.3km/h 49% 0in /  0.0mm CLR
01:15 64.6 °F /  18.1 °C 45 °F /  7.2 °C 29.5in /  999.6hPa WSW 11.2mph /  18.0km/h 16.1mph /  25.9km/h 49% 0in /  0.0mm CLR
01:20 64.6 °F /  18.1 °C 45 °F /  7.2 °C 29.5in /  999.5hPa SW 12mph /  19.3km/h 17mph /  27.4km/h 49% 0in /  0.0mm CLR
01:25 64.4 °F /  18.0 °C 44.8 °F /  7.1 °C 29.5in /  999.5hPa WSW 11.2mph /  18.0km/h 10.4mph /  16.7km/h 49% 0in /  0.0mm CLR
01:30 64.2 °F /  17.9 °C 45.1 °F /  7.3 °C 29.5in /  999.5hPa SSW 7.6mph /  12.2km/h 9.2mph /  14.8km/h 50% 0in /  0.0mm CLR
01:35 64.2 °F /  17.9 °C 45.1 °F /  7.3 °C 29.5in /  999.3hPa SW 8mph /  12.9km/h 13mph /  20.9km/h 50% 0in /  0.0mm CLR
01:40 64.6 °F /  18.1 °C 45 °F /  7.2 °C 29.5in /  999.3hPa SSW 7mph /  11.3km/h 16mph /  25.7km/h 49% 0in /  0.0mm CLR
01:45 64.9 °F /  18.3 °C 45.3 °F /  7.4 °C 29.5in /  999.3hPa SW 7.4mph /  11.9km/h 15mph /  24.1km/h 49% 0in /  0.0mm CLR
01:50 65.1 °F /  18.4 °C 45 °F /  7.2 °C 29.5in /  999.1hPa SSW 9.7mph /  15.6km/h 12.7mph /  20.4km/h 48% 0in /  0.0mm CLR
01:55 65.1 °F /  18.4 °C 45 °F /  7.2 °C 29.5in /  999.1hPa SW 9.7mph /  15.6km/h 8.1mph /  13.0km/h 48% 0in /  0.0mm CLR
02:00 64.9 °F /  18.3 °C 44.8 °F /  7.1 °C 29.5in /  999.1hPa SSW 7mph /  11.3km/h 22mph /  35.4km/h 48% 0in /  0.0mm CLR
02:05 65.1 °F /  18.4 °C 44.4 °F /  6.9 °C 29.5in /  998.9hPa SSW 6.4mph /  10.3km/h 15mph /  24.1km/h 47% 0in /  0.0mm CLR
02:10 65.3 °F /  18.5 °C 44.4 °F /  6.9 °C 29.5in /  998.9hPa SSW 8.7mph /  14.0km/h 16.1mph /  25.9km/h 47% 0in /  0.0mm CLR
02:15 65.5 °F /  18.6 °C 44.1 °F /  6.7 °C 29.5in /  998.9hPa SSW 8.7mph /  14.0km/h 16.1mph /  25.9km/h 46% 0in /  0.0mm CLR
02:20 65.7 °F /  18.7 °C 43.7 °F /  6.5 °C 29.5in /  998.9hPa SW 13mph /  20.9km/h 17.3mph /  27.8km/h 45% 0in /  0.0mm CLR
02:25 65.5 °F /  18.6 °C 43.5 °F /  6.4 °C 29.5in /  998.9hPa SSW 13mph /  20.9km/h 23mph /  37.0km/h 45% 0in /  0.0mm CLR
02:30 65.7 °F /  18.7 °C 43.7 °F /  6.5 °C 29.5in /  998.9hPa SSE 12.3mph /  19.8km/h 20.7mph /  33.3km/h 45% 0in /  0.0mm CLR
02:35 65.7 °F /  18.7 °C 43.2 °F /  6.2 °C 29.5in /  998.5hPa SSW 13mph /  20.9km/h 21mph /  33.8km/h 44% 0in /  0.0mm CLR
02:40 65.7 °F /  18.7 °C 43.2 °F /  6.2 °C 29.5in /  998.5hPa SSW 10mph /  16.1km/h 12.7mph /  20.4km/h 44% 0in /  0.0mm CLR
02:45 65.8 °F /  18.8 °C 43.3 °F /  6.3 °C 29.5in /  998.5hPa South 10mph /  16.1km/h 9.2mph /  14.8km/h 44% 0in /  0.0mm CLR
02:50 65.8 °F /  18.8 °C 43.3 °F /  6.3 °C 29.5in /  998.2hPa SE 8.1mph /  13.0km/h 15mph /  24.1km/h 44% 0in /  0.0mm CLR
02:55 65.8 °F /  18.8 °C 43.3 °F /  6.3 °C 29.5in /  998.2hPa SSE 8.1mph /  13.0km/h 15mph /  24.1km/h 44% 0in /  0.0mm CLR
03:00 65.8 °F /  18.8 °C 43.3 °F /  6.3 °C 29.5in /  998.2hPa South 9mph /  14.5km/h 17mph /  27.4km/h 44% 0in /  0.0mm CLR
03:05 65.8 °F /  18.8 °C 43.3 °F /  6.3 °C 29.5in /  997.9hPa South 9mph /  14.5km/h 21mph /  33.8km/h 44% 0in /  0.0mm CLR
03:10 65.7 °F /  18.7 °C 43.2 °F /  6.2 °C 29.5in /  997.9hPa South 10mph /  16.1km/h 20mph /  32.2km/h 44% 0in /  0.0mm CLR
03:15 65.7 °F /  18.7 °C 43.2 °F /  6.2 °C 29.5in /  997.9hPa South 10.7mph /  17.2km/h 20.7mph /  33.3km/h 44% 0in /  0.0mm CLR
03:20 65.7 °F /  18.7 °C 43.2 °F /  6.2 °C 29.5in /  997.8hPa South 14mph /  22.5km/h 25mph /  40.2km/h 44% 0in /  0.0mm CLR
03:25 65.5 °F /  18.6 °C 43.5 °F /  6.4 °C 29.5in /  997.8hPa SSW 13.7mph /  22.0km/h 17.3mph /  27.8km/h 45% 0in /  0.0mm CLR
03:30 65.5 °F /  18.6 °C 43.5 °F /  6.4 °C 29.5in /  997.8hPa SSW 11.8mph /  19.0km/h 17.3mph /  27.8km/h 45% 0in /  0.0mm CLR
03:35 65.3 °F /  18.5 °C 43.3 °F /  6.3 °C 29.5in /  997.7hPa South 12mph /  19.3km/h 17mph /  27.4km/h 45% 0in /  0.0mm CLR
03:40 65.1 °F /  18.4 °C 43.2 °F /  6.2 °C 29.5in /  997.7hPa South 10.2mph /  16.4km/h 16.1mph /  25.9km/h 45% 0in /  0.0mm CLR
03:45 65.1 °F /  18.4 °C 43.2 °F /  6.2 °C 29.5in /  997.7hPa South 10mph /  16.1km/h 16mph /  25.7km/h 45% 0in /  0.0mm CLR
03:50 64.9 °F /  18.3 °C 43.2 °F /  6.2 °C 29.5in /  997.3hPa SSW 9.7mph /  15.6km/h 12.7mph /  20.4km/h 45% 0in /  0.0mm CLR
03:55 64.9 °F /  18.3 °C 43.2 °F /  6.2 °C 29.5in /  997.3hPa South 9.7mph /  15.6km/h 18.4mph /  29.6km/h 45% 0in /  0.0mm CLR
04:00 65.1 °F /  18.4 °C 43.2 °F /  6.2 °C 29.5in /  997.3hPa SSW 12mph /  19.3km/h 21mph /  33.8km/h 45% 0in /  0.0mm CLR
04:05 65.3 °F /  18.5 °C 42.8 °F /  6.0 °C 29.5in /  997.2hPa SW 11.4mph /  18.3km/h 18.4mph /  29.6km/h 44% 0in /  0.0mm CLR
04:10 65.3 °F /  18.5 °C 42.8 °F /  6.0 °C 29.5in /  997.2hPa South 12.5mph /  20.1km/h 12.7mph /  20.4km/h 44% 0in /  0.0mm CLR
04:15 65.3 °F /  18.5 °C 42.8 °F /  6.0 °C 29.5in /  997.2hPa SW 12.5mph /  20.1km/h 17.3mph /  27.8km/h 44% 0in /  0.0mm CLR
04:20 65.1 °F /  18.4 °C 43.2 °F /  6.2 °C 29.4in /  997.0hPa SW 10.2mph /  16.4km/h 12.7mph /  20.4km/h 45% 0in /  0.0mm CLR
04:25 65.1 °F /  18.4 °C 43.2 °F /  6.2 °C 29.4in /  997.0hPa SW 10.2mph /  16.4km/h 17.3mph /  27.8km/h 45% 0in /  0.0mm CLR
04:30 64.9 °F /  18.3 °C 43.7 °F /  6.5 °C 29.4in /  997.0hPa SSW 11.2mph /  18.0km/h 20.8mph /  33.5km/h 46% 0in /  0.0mm CLR
04:35 64 °F /  17.8 °C 45 °F /  7.2 °C 29.4in /  996.9hPa SSW 11.2mph /  18.0km/h 18.4mph /  29.6km/h 50% 0in /  0.0mm CLR
04:40 63 °F /  17.2 °C 46 °F /  7.8 °C 29.4in /  996.9hPa South 13.5mph /  21.7km/h 20.7mph /  33.3km/h 54% 0in /  0.0mm CLR
04:45 62.4 °F /  16.9 °C 46.6 °F /  8.1 °C 29.4in /  996.9hPa SSW 13.5mph /  21.7km/h 15mph /  24.1km/h 56% 0in /  0.0mm CLR
04:50 62.2 °F /  16.8 °C 46.2 °F /  7.9 °C 29.4in /  996.6hPa South 14mph /  22.5km/h 17mph /  27.4km/h 56% 0in /  0.0mm CLR
04:55 62.2 °F /  16.8 °C 46.2 °F /  7.9 °C 29.4in /  996.6hPa South 14mph /  22.5km/h 11.5mph /  18.5km/h 56% 0in /  0.0mm CLR
04:59 62.2 °F /  16.8 °C 45.9 °F /  7.7 °C 29.4in /  996.6hPa SE 10mph /  16.1km/h 18.4mph /  29.6km/h 55% 0in /  0.0mm CLR
05:05 62.2 °F /  16.8 °C 45.9 °F /  7.7 °C 29.4in /  996.4hPa SSE 10mph /  16.1km/h 13.8mph /  22.2km/h 55% 0in /  0.0mm CLR
05:10 62.4 °F /  16.9 °C 45.5 °F /  7.5 °C 29.4in /  996.4hPa SE 9.7mph /  15.6km/h 10.4mph /  16.7km/h 54% 0in /  0.0mm CLR
05:15 62.4 °F /  16.9 °C 45.1 °F /  7.3 °C 29.4in /  996.4hPa SSE 9mph /  14.5km/h 13mph /  20.9km/h 53% 0in /  0.0mm CLR
05:20 62.8 °F /  17.1 °C 45 °F /  7.2 °C 29.4in /  995.8hPa SE 8.1mph /  13.0km/h 12.7mph /  20.4km/h 52% 0in /  0.0mm FEW
05:25 63 °F /  17.2 °C 45.1 °F /  7.3 °C 29.4in /  995.8hPa SE 8.1mph /  13.0km/h 6.9mph /  11.1km/h 52% 0in /  0.0mm FEW
05:30 63.1 °F /  17.3 °C 44.8 °F /  7.1 °C 29.4in /  995.8hPa SE 7mph /  11.3km/h 8mph /  12.9km/h 51% 0in /  0.0mm FEW
05:35 63.3 °F /  17.4 °C 45.3 °F /  7.4 °C 29.4in /  995.7hPa ESE 6.4mph /  10.3km/h 6.9mph /  11.1km/h 52% 0in /  0.0mm FEW
05:40 63 °F /  17.2 °C 46.6 °F /  8.1 °C 29.4in /  995.7hPa ESE 5mph /  8.0km/h 7mph /  11.3km/h 55% 0in /  0.0mm FEW
05:45 62.1 °F /  16.7 °C 46.6 °F /  8.1 °C 29.4in /  995.7hPa East 4.3mph /  6.9km/h 3.5mph /  5.6km/h 57% 0in /  0.0mm FEW
05:50 61.5 °F /  16.4 °C 46.6 °F /  8.1 °C 29.4in /  995.5hPa SSE 3.1mph /  5.0km/h 5.9mph /  9.5km/h 58% 0in /  0.0mm CLR
05:55 61.3 °F /  16.3 °C 46 °F /  7.8 °C 29.4in /  995.5hPa SW 3.1mph /  5.0km/h 9.2mph /  14.8km/h 57% 0in /  0.0mm CLR
06:00 61.7 °F /  16.5 °C 45.3 °F /  7.4 °C 29.4in /  995.5hPa South 6mph /  9.7km/h 12mph /  19.3km/h 55% 0in /  0.0mm CLR
06:05 62.1 °F /  16.7 °C 44.8 °F /  7.1 °C 29.4in /  995.2hPa SSW 5.4mph /  8.7km/h 10.4mph /  16.7km/h 53% 0in /  0.0mm CLR
06:10 62.2 °F /  16.8 °C 45.3 °F /  7.4 °C 29.4in /  995.2hPa South 6.9mph /  11.1km/h 13.8mph /  22.2km/h 54% 0in /  0.0mm CLR
06:15 62.2 °F /  16.8 °C 45.9 °F /  7.7 °C 29.4in /  995.2hPa South 6.9mph /  11.1km/h 16.1mph /  25.9km/h 55% 0in /  0.0mm CLR
06:20 62.2 °F /  16.8 °C 45.9 °F /  7.7 °C 29.4in /  995.1hPa South 10.2mph /  16.4km/h 13.8mph /  22.2km/h 55% 0in /  0.0mm BKN
06:25 62.1 °F /  16.7 °C 46.2 °F /  7.9 °C 29.4in /  995.1hPa South 10.2mph /  16.4km/h 16.1mph /  25.9km/h 56% 0in /  0.0mm BKN
06:30 62.1 °F /  16.7 °C 46.2 °F /  7.9 °C 29.4in /  995.1hPa South 11.2mph /  18.0km/h 18.4mph /  29.6km/h 56% 0in /  0.0mm BKN
06:35 62.1 °F /  16.7 °C 46.2 °F /  7.9 °C 29.4in /  994.7hPa SSW 11.2mph /  18.0km/h 15mph /  24.1km/h 56% 0in /  0.0mm BKN
06:40 62.1 °F /  16.7 °C 46.2 °F /  7.9 °C 29.4in /  994.7hPa South 10.2mph /  16.4km/h 16.1mph /  25.9km/h 56% 0in /  0.0mm BKN
06:45 62.1 °F /  16.7 °C 46.6 °F /  8.1 °C 29.4in /  994.7hPa South 10.2mph /  16.4km/h 16.1mph /  25.9km/h 57% 0in /  0.0mm BKN
06:50 61.9 °F /  16.6 °C 46.9 °F /  8.3 °C 29.4in /  994.4hPa SSW 10.2mph /  16.4km/h 18.4mph /  29.6km/h 58% 0in /  0.0mm FEW
06:55 61.7 °F /  16.5 °C 46.8 °F /  8.2 °C 29.4in /  994.4hPa SW 10.2mph /  16.4km/h 16.1mph /  25.9km/h 58% 0in /  0.0mm FEW
07:00 61.5 °F /  16.4 °C 46.6 °F /  8.1 °C 29.4in /  994.4hPa South 14mph /  22.5km/h 21mph /  33.8km/h 58% 0in /  0.0mm FEW
07:05 61.5 °F /  16.4 °C 47.1 °F /  8.4 °C 29.4in /  994.5hPa South 13.5mph /  21.7km/h 15.6mph /  25.1km/h 59% 0in /  0.0mm FEW
07:10 61.3 °F /  16.3 °C 46.9 °F /  8.3 °C 29.4in /  994.5hPa South 12.3mph /  19.8km/h 12.7mph /  20.4km/h 59% 0in /  0.0mm FEW
07:15 61.3 °F /  16.3 °C 46.9 °F /  8.3 °C 29.4in /  994.5hPa SSW 12.3mph /  19.8km/h 11.5mph /  18.5km/h 59% 0in /  0.0mm FEW
07:20 61.2 °F /  16.2 °C 46.8 °F /  8.2 °C 29.4in /  994.5hPa SSW 8.7mph /  14.0km/h 13mph /  20.9km/h 59% 0in /  0.0mm CLR
07:25 61.5 °F /  16.4 °C 46.6 °F /  8.1 °C 29.4in /  994.5hPa SSW 8.7mph /  14.0km/h 11.5mph /  18.5km/h 58% 0in /  0.0mm CLR
07:30 61.5 °F /  16.4 °C 46.6 °F /  8.1 °C 29.4in /  994.5hPa SSW 7.4mph /  11.9km/h 9.2mph /  14.8km/h 58% 0in /  0.0mm CLR
07:35 61.5 °F /  16.4 °C 46.8 °F /  8.2 °C 29.4in /  994.3hPa SSW 7mph /  11.3km/h 13mph /  20.9km/h 58% 0in /  0.0mm CLR
07:40 61.7 °F /  16.5 °C 46.8 °F /  8.2 °C 29.4in /  994.3hPa SSW 7.6mph /  12.2km/h 11.5mph /  18.5km/h 58% 0in /  0.0mm CLR
07:45 61.9 °F /  16.6 °C 46.9 °F /  8.3 °C 29.4in /  994.3hPa SSW 7.6mph /  12.2km/h 13.8mph /  22.2km/h 58% 0in /  0.0mm CLR
07:50 61.7 °F /  16.5 °C 46.8 °F /  8.2 °C 29.4in /  994.3hPa SW 8.1mph /  13.0km/h 8.5mph /  13.7km/h 58% 0in /  0.0mm CLR
07:55 61.7 °F /  16.5 °C 46.8 °F /  8.2 °C 29.4in /  994.3hPa SW 8.1mph /  13.0km/h 9.2mph /  14.8km/h 58% 0in /  0.0mm CLR
08:00 61.7 °F /  16.5 °C 47.1 °F /  8.4 °C 29.4in /  994.3hPa SSW 7mph /  11.3km/h 14mph /  22.5km/h 59% 0in /  0.0mm CLR
08:05 61.7 °F /  16.5 °C 48 °F /  8.9 °C 29.4in /  994.4hPa South 7.4mph /  11.9km/h 17.3mph /  27.8km/h 61% 0in /  0.0mm CLR
08:10 61.5 °F /  16.4 °C 48.4 °F /  9.1 °C 29.4in /  994.4hPa SSW 10.7mph /  17.2km/h 14mph /  22.5km/h 62% 0in /  0.0mm CLR
08:15 61.3 °F /  16.3 °C 48.2 °F /  9.0 °C 29.4in /  994.4hPa SW 10.7mph /  17.2km/h 9.2mph /  14.8km/h 62% 0in /  0.0mm CLR
08:20 61.3 °F /  16.3 °C 48.2 °F /  9.0 °C 29.4in /  994.3hPa South 8.7mph /  14.0km/h 12.7mph /  20.4km/h 62% 0in /  0.0mm CLR
08:25 61.2 °F /  16.2 °C 48.6 °F /  9.2 °C 29.4in /  994.3hPa SSW 8.7mph /  14.0km/h 10.4mph /  16.7km/h 63% 0in /  0.0mm CLR
08:30 61.2 °F /  16.2 °C 48.6 °F /  9.2 °C 29.4in /  994.3hPa SSW 7.6mph /  12.2km/h 9.2mph /  14.8km/h 63% 0in /  0.0mm CLR
08:35 61.2 °F /  16.2 °C 48.6 °F /  9.2 °C 29.4in /  994.5hPa SSW 7.6mph /  12.2km/h 10.4mph /  16.7km/h 63% 0in /  0.0mm CLR
08:40 61.2 °F /  16.2 °C 48.6 °F /  9.2 °C 29.4in /  994.5hPa SW 7.6mph /  12.2km/h 11.5mph /  18.5km/h 63% 0in /  0.0mm CLR
08:45 61.2 °F /  16.2 °C 48.6 °F /  9.2 °C 29.4in /  994.5hPa SSW 7.6mph /  12.2km/h 9.2mph /  14.8km/h 63% 0in /  0.0mm CLR
08:50 61.3 °F /  16.3 °C 48.6 °F /  9.2 °C 29.4in /  994.5hPa SW 7.6mph /  12.2km/h 10.7mph /  17.2km/h 63% 0in /  0.0mm FEW
08:55 61.3 °F /  16.3 °C 48.6 °F /  9.2 °C 29.4in /  994.5hPa SSW 7.6mph /  12.2km/h 8.1mph /  13.0km/h 63% 0in /  0.0mm FEW
09:00 61.2 °F /  16.2 °C 48.6 °F /  9.2 °C 29.4in /  994.5hPa SSW 7mph /  11.3km/h 9mph /  14.5km/h 63% 0in /  0.0mm FEW
09:05 61.3 °F /  16.3 °C 48.2 °F /  9.0 °C 29.4in /  994.5hPa SW 6.4mph /  10.3km/h 8.1mph /  13.0km/h 62% 0in /  0.0mm FEW
09:10 61.3 °F /  16.3 °C 47.8 °F /  8.8 °C 29.4in /  994.5hPa South 5.9mph /  9.5km/h 12.3mph /  19.8km/h 61% 0in /  0.0mm FEW
09:15 61.5 °F /  16.4 °C 47.5 °F /  8.6 °C 29.4in /  994.5hPa SW 5.9mph /  9.5km/h 11.5mph /  18.5km/h 60% 0in /  0.0mm FEW
09:20 61.7 °F /  16.5 °C 47.7 °F /  8.7 °C 29.4in /  994.9hPa SSW 6.9mph /  11.1km/h 11.5mph /  18.5km/h 60% 0in /  0.0mm FEW
09:25 61.7 °F /  16.5 °C 48 °F /  8.9 °C 29.4in /  994.9hPa WSW 6.9mph /  11.1km/h 10.4mph /  16.7km/h 61% 0in /  0.0mm FEW
09:30 61.5 °F /  16.4 °C 48.4 °F /  9.1 °C 29.4in /  994.9hPa WSW 8.1mph /  13.0km/h 15mph /  24.1km/h 62% 0in /  0.0mm FEW
09:35 61.3 °F /  16.3 °C 49.1 °F /  9.5 °C 29.4in /  995.0hPa WSW 8.1mph /  13.0km/h 10.2mph /  16.4km/h 64% 0in /  0.0mm FEW
09:40 61.2 °F /  16.2 °C 48.9 °F /  9.4 °C 29.4in /  995.0hPa SSW 7.4mph /  11.9km/h 12.7mph /  20.4km/h 64% 0in /  0.0mm FEW
09:45 61.2 °F /  16.2 °C 49.3 °F /  9.6 °C 29.4in /  995.0hPa SW 7mph /  11.3km/h 13mph /  20.9km/h 65% 0in /  0.0mm FEW
09:50 61.3 °F /  16.3 °C 49.5 °F /  9.7 °C 29.4in /  994.9hPa SW 6.4mph /  10.3km/h 6.9mph /  11.1km/h 65% 0in /  0.0mm -RA
09:55 61.3 °F /  16.3 °C 49.1 °F /  9.5 °C 29.4in /  994.9hPa SSW 6.4mph /  10.3km/h 9.2mph /  14.8km/h 64% 0in /  0.0mm -RA
10:00 61.5 °F /  16.4 °C 49.3 °F /  9.6 °C 29.4in /  994.9hPa SSW 6mph /  9.7km/h 10mph /  16.1km/h 64% 0in /  0.0mm -RA
10:05 62.1 °F /  16.7 °C 49.3 °F /  9.6 °C 29.4in /  994.0hPa SSW 6.2mph /  10.0km/h 8.1mph /  13.0km/h 63% 0in /  0.0mm -RA
10:10 62.4 °F /  16.9 °C 49.3 °F /  9.6 °C 29.4in /  994.0hPa SSW 5.4mph /  8.7km/h 7.4mph /  11.9km/h 62% 0in /  0.0mm -RA
10:15 63 °F /  17.2 °C 49.6 °F /  9.8 °C 29.4in /  994.0hPa SW 5.4mph /  8.7km/h 8.1mph /  13.0km/h 62% 0in /  0.0mm -RA
10:20 63.3 °F /  17.4 °C 49.6 °F /  9.8 °C 29.4in /  994.1hPa WSW 4.7mph /  7.6km/h 4.6mph /  7.4km/h 61% 0in /  0.0mm -RA
10:25 63.7 °F /  17.6 °C 49.5 °F /  9.7 °C 29.4in /  994.1hPa WSW 4.7mph /  7.6km/h 8.1mph /  13.0km/h 60% 0in /  0.0mm -RA
10:30 64 °F /  17.8 °C 49.8 °F /  9.9 °C 29.4in /  994.1hPa WSW 4.3mph /  6.9km/h 8.1mph /  13.0km/h 60% 0in /  0.0mm -RA
10:35 64.2 °F /  17.9 °C 50 °F /  10.0 °C 29.4in /  994.2hPa SW 4.3mph /  6.9km/h 5.8mph /  9.3km/h 60% 0in /  0.0mm FEW
10:40 64.6 °F /  18.1 °C 49.8 °F /  9.9 °C 29.4in /  994.2hPa South 4mph /  6.4km/h 4.6mph /  7.4km/h 59% 0in /  0.0mm FEW
10:45 64.9 °F /  18.3 °C 49.8 °F /  9.9 °C 29.4in /  994.2hPa WSW 4mph /  6.4km/h 6.9mph /  11.1km/h 58% 0in /  0.0mm FEW
10:50 65.1 °F /  18.4 °C 50 °F /  10.0 °C 29.4in /  994.2hPa South 4mph /  6.4km/h 5.8mph /  9.3km/h 58% 0in /  0.0mm FEW
10:55 65.7 °F /  18.7 °C 50 °F /  10.0 °C 29.4in /  994.2hPa SSW 4mph /  6.4km/h 8.1mph /  13.0km/h 57% 0in /  0.0mm FEW
11:00 65.8 °F /  18.8 °C 50.2 °F /  10.1 °C 29.4in /  994.2hPa SW 5mph /  8.0km/h 8mph /  12.9km/h 57% 0in /  0.0mm FEW
11:05 66.4 °F /  19.1 °C 50.2 °F /  10.1 °C 29.4in /  994.3hPa SSW 4.3mph /  6.9km/h 6.9mph /  11.1km/h 56% 0in /  0.0mm FEW
11:10 66.7 °F /  19.3 °C 50.2 °F /  10.1 °C 29.4in /  994.3hPa SW 4.3mph /  6.9km/h 6.9mph /  11.1km/h 55% 0in /  0.0mm FEW
11:15 66.9 °F /  19.4 °C 49.3 °F /  9.6 °C 29.4in /  994.3hPa SSE 4.3mph /  6.9km/h 11.5mph /  18.5km/h 53% 0in /  0.0mm FEW
11:20 66.6 °F /  19.2 °C 49.8 °F /  9.9 °C 29.4in /  994.6hPa SSE 6.4mph /  10.3km/h 12.7mph /  20.4km/h 55% 0in /  0.0mm FEW
11:25 66.2 °F /  19.0 °C 50 °F /  10.0 °C 29.4in /  994.6hPa SW 6.4mph /  10.3km/h 11.5mph /  18.5km/h 56% 0in /  0.0mm FEW
11:30 66.2 °F /  19.0 °C 50 °F /  10.0 °C 29.4in /  994.6hPa South 6.9mph /  11.1km/h 4.6mph /  7.4km/h 56% 0in /  0.0mm FEW
11:35 66.2 °F /  19.0 °C 50.5 °F /  10.3 °C 29.4in /  994.4hPa SSW 6.9mph /  11.1km/h 5.8mph /  9.3km/h 57% 0in /  0.0mm FEW
11:40 66.6 °F /  19.2 °C 48.4 °F /  9.1 °C 29.4in /  994.4hPa WSW 4.3mph /  6.9km/h 15mph /  24.1km/h 52% 0in /  0.0mm FEW
11:45 66.9 °F /  19.4 °C 47.7 °F /  8.7 °C 29.4in /  994.4hPa SSW 4.3mph /  6.9km/h 19.6mph /  31.5km/h 50% 0in /  0.0mm FEW
11:50 67.5 °F /  19.7 °C 48.2 °F /  9.0 °C 29.4in /  994.4hPa WSW 10.2mph /  16.4km/h 16.1mph /  25.9km/h 50% 0in /  0.0mm FEW
11:55 67.8 °F /  19.9 °C 48 °F /  8.9 °C 29.4in /  994.4hPa WSW 10.2mph /  16.4km/h 13.8mph /  22.2km/h 49% 0in /  0.0mm FEW
12:00 68.2 °F /  20.1 °C 47.1 °F /  8.4 °C 29.4in /  994.4hPa SW 9mph /  14.5km/h 18mph /  29.0km/h 47% 0in /  0.0mm FEW
12:05 68.2 °F /  20.1 °C 47.1 °F /  8.4 °C 29.4in /  994.2hPa SSW 9.2mph /  14.8km/h 21.9mph /  35.2km/h 47% 0in /  0.0mm FEW
12:10 68.2 °F /  20.1 °C 47.1 °F /  8.4 °C 29.4in /  994.2hPa SW 10.7mph /  17.2km/h 11.5mph /  18.5km/h 47% 0in /  0.0mm FEW
12:15 67.6 °F /  19.8 °C 49.5 °F /  9.7 °C 29.4in /  994.2hPa WNW 10.7mph /  17.2km/h 17.3mph /  27.8km/h 52% 0in /  0.0mm FEW
12:20 65.8 °F /  18.8 °C 48.7 °F /  9.3 °C 29.4in /  994.6hPa NW 11.4mph /  18.3km/h 18.4mph /  29.6km/h 54% 0in /  0.0mm FEW
12:25 64.8 °F /  18.2 °C 48.7 °F /  9.3 °C 29.4in /  994.6hPa NW 11.4mph /  18.3km/h 12.7mph /  20.4km/h 56% 0in /  0.0mm FEW
12:30 64.4 °F /  18.0 °C 48.4 °F /  9.1 °C 29.4in /  994.6hPa NNW 11.2mph /  18.0km/h 21.9mph /  35.2km/h 56% 0in /  0.0mm FEW
12:35 64.4 °F /  18.0 °C 48.4 °F /  9.1 °C 29.4in /  994.5hPa NW 11.2mph /  18.0km/h 8.7mph /  14.0km/h 56% 0in /  0.0mm FEW
12:40 64.4 °F /  18.0 °C 48.4 °F /  9.1 °C 29.4in /  994.5hPa NW 8.7mph /  14.0km/h 15mph /  24.1km/h 56% 0in /  0.0mm FEW
12:45 64.2 °F /  17.9 °C 48.2 °F /  9.0 °C 29.4in /  994.5hPa NW 8.7mph /  14.0km/h 11.5mph /  18.5km/h 56% 0in /  0.0mm FEW
12:50 64.4 °F /  18.0 °C 47.8 °F /  8.8 °C 29.4in /  994.6hPa West 8.5mph /  13.7km/h 16.1mph /  25.9km/h 55% 0in /  0.0mm FEW
12:55 64.8 °F /  18.2 °C 47.1 °F /  8.4 °C 29.4in /  994.6hPa NW 8.5mph /  13.7km/h 15mph /  24.1km/h 53% 0in /  0.0mm FEW
13:00 64.9 °F /  18.3 °C 47.5 °F /  8.6 °C 29.4in /  994.6hPa WNW 10mph /  16.1km/h 16mph /  25.7km/h 53% 0in /  0.0mm FEW
13:05 65.7 °F /  18.7 °C 46.6 °F /  8.1 °C 29.4in /  994.2hPa WNW 10.7mph /  17.2km/h 25.3mph /  40.7km/h 50% 0in /  0.0mm FEW
13:10 66.4 °F /  19.1 °C 46 °F /  7.8 °C 29.4in /  994.2hPa West 10.2mph /  16.4km/h 16.1mph /  25.9km/h 48% 0in /  0.0mm FEW
13:15 66.6 °F /  19.2 °C 45.1 °F /  7.3 °C 29.4in /  994.2hPa WNW 10.2mph /  16.4km/h 13.8mph /  22.2km/h 46% 0in /  0.0mm FEW
13:20 66.9 °F /  19.4 °C 44.2 °F /  6.8 °C 29.4in /  994.0hPa WNW 12.5mph /  20.1km/h 15mph /  24.1km/h 44% 0in /  0.0mm FEW
13:25 67.3 °F /  19.6 °C 44.1 °F /  6.7 °C 29.4in /  994.0hPa WNW 12.5mph /  20.1km/h 18.4mph /  29.6km/h 43% 0in /  0.0mm FEW
13:30 67.5 °F /  19.7 °C 43 °F /  6.1 °C 29.4in /  994.0hPa West 11.8mph /  19.0km/h 18.4mph /  29.6km/h 41% 0in /  0.0mm FEW
13:35 67.3 °F /  19.6 °C 42.8 °F /  6.0 °C 29.4in /  993.8hPa West 11.8mph /  19.0km/h 16.3mph /  26.2km/h 41% 0in /  0.0mm FEW
13:40 67.1 °F /  19.5 °C 42.1 °F /  5.6 °C 29.4in /  993.8hPa West 9.2mph /  14.8km/h 14mph /  22.5km/h 40% 0in /  0.0mm FEW
13:45 67.3 °F /  19.6 °C 37.9 °F /  3.3 °C 29.4in /  993.8hPa NW 9.2mph /  14.8km/h 17.5mph /  28.2km/h 34% 0in /  0.0mm FEW
13:50 67.3 °F /  19.6 °C 36.3 °F /  2.4 °C 29.4in /  994.0hPa WNW 11.8mph /  19.0km/h 24.2mph /  38.9km/h 32% 0in /  0.0mm FEW
13:55 67.6 °F /  19.8 °C 35.1 °F /  1.7 °C 29.4in /  994.0hPa WSW 11.8mph /  19.0km/h 25.3mph /  40.7km/h 30% 0in /  0.0mm FEW
14:00 67.5 °F /  19.7 °C 34.2 °F /  1.2 °C 29.4in /  994.0hPa West 16mph /  25.7km/h 28mph /  45.1km/h 29% 0in /  0.0mm FEW
14:05 67.5 °F /  19.7 °C 34.2 °F /  1.2 °C 29.4in /  994.1hPa SW 15.6mph /  25.1km/h 25.3mph /  40.7km/h 29% 0in /  0.0mm FEW
14:10 67.3 °F /  19.6 °C 34.9 °F /  1.6 °C 29.4in /  994.1hPa SW 15.6mph /  25.1km/h 20.7mph /  33.3km/h 30% 0in /  0.0mm FEW
14:15 67.5 °F /  19.7 °C 34.9 °F /  1.6 °C 29.4in /  994.1hPa WSW 15.6mph /  25.1km/h 16.1mph /  25.9km/h 30% 0in /  0.0mm FEW
14:20 67.6 °F /  19.8 °C 34.2 °F /  1.2 °C 29.4in /  994.2hPa West 11.4mph /  18.3km/h 18.4mph /  29.6km/h 29% 0in /  0.0mm FEW
14:25 67.6 °F /  19.8 °C 34.2 °F /  1.2 °C 29.4in /  994.2hPa WSW 11.4mph /  18.3km/h 21.9mph /  35.2km/h 29% 0in /  0.0mm FEW
14:30 67.8 °F /  19.9 °C 34.3 °F /  1.3 °C 29.4in /  994.2hPa West 13.7mph /  22.0km/h 13.8mph /  22.2km/h 29% 0in /  0.0mm FEW
14:35 68.2 °F /  20.1 °C 34.7 °F /  1.5 °C 29.4in /  994.0hPa SW 13.7mph /  22.0km/h 15mph /  24.1km/h 29% 0in /  0.0mm FEW
14:40 67.8 °F /  19.9 °C 34.3 °F /  1.3 °C 29.4in /  994.0hPa SSW 11.4mph /  18.3km/h 20.7mph /  33.3km/h 29% 0in /  0.0mm FEW
14:45 67.3 °F /  19.6 °C 34.9 °F /  1.6 °C 29.4in /  994.0hPa WSW 11.4mph /  18.3km/h 23.5mph /  37.8km/h 30% 0in /  0.0mm FEW
14:50 66.7 °F /  19.3 °C 34.3 °F /  1.3 °C 29.4in /  994.1hPa West 14.7mph /  23.7km/h 25.3mph /  40.7km/h 30% 0in /  0.0mm FEW
14:55 66.7 °F /  19.3 °C 34.3 °F /  1.3 °C 29.4in /  994.1hPa West 14.7mph /  23.7km/h 23mph /  37.0km/h 30% 0in /  0.0mm FEW
15:00 66.9 °F /  19.4 °C 35.2 °F /  1.8 °C 29.4in /  994.1hPa WNW 15mph /  24.1km/h 21mph /  33.8km/h 31% 0in /  0.0mm FEW
15:05 66.9 °F /  19.4 °C 35.2 °F /  1.8 °C 29.4in /  994.0hPa West 14.7mph /  23.7km/h 21.9mph /  35.2km/h 31% 0in /  0.0mm FEW
15:10 66.7 °F /  19.3 °C 35.1 °F /  1.7 °C 29.4in /  994.0hPa WNW 12.5mph /  20.1km/h 25.3mph /  40.7km/h 31% 0in /  0.0mm FEW
15:15 66.9 °F /  19.4 °C 35.2 °F /  1.8 °C 29.4in /  994.0hPa SW 12.5mph /  20.1km/h 20.7mph /  33.3km/h 31% 0in /  0.0mm FEW
15:20 66.7 °F /  19.3 °C 35.1 °F /  1.7 °C 29.4in /  994.1hPa WNW 13.5mph /  21.7km/h 18.4mph /  29.6km/h 31% 0in /  0.0mm FEW
15:25 66.7 °F /  19.3 °C 35.1 °F /  1.7 °C 29.4in /  994.1hPa SW 13.5mph /  21.7km/h 23mph /  37.0km/h 31% 0in /  0.0mm FEW
15:30 66.4 °F /  19.1 °C 35.6 °F /  2.0 °C 29.4in /  994.1hPa NW 14.5mph /  23.3km/h 24.2mph /  38.9km/h 32% 0in /  0.0mm FEW
15:35 66.4 °F /  19.1 °C 35.6 °F /  2.0 °C 29.4in /  993.8hPa SW 14.5mph /  23.3km/h 17mph /  27.4km/h 32% 0in /  0.0mm FEW
15:40 66.6 °F /  19.2 °C 35.8 °F /  2.1 °C 29.4in /  993.8hPa WNW 13.7mph /  22.0km/h 16.1mph /  25.9km/h 32% 0in /  0.0mm FEW
15:45 66.4 °F /  19.1 °C 34.9 °F /  1.6 °C 29.4in /  993.8hPa NNW 13.7mph /  22.0km/h 19.6mph /  31.5km/h 31% 0in /  0.0mm FEW
15:50 66.4 °F /  19.1 °C 34.9 °F /  1.6 °C 29.4in /  993.9hPa WSW 11.8mph /  19.0km/h 25.3mph /  40.7km/h 31% 0in /  0.0mm FEW
15:55 66 °F /  18.9 °C 34.5 °F /  1.4 °C 29.4in /  993.9hPa WNW 11.8mph /  19.0km/h 30.6mph /  49.2km/h 31% 0in /  0.0mm FEW
16:00 65.5 °F /  18.6 °C 34.9 °F /  1.6 °C 29.4in /  993.9hPa West 15mph /  24.1km/h 31mph /  49.9km/h 32% 0in /  0.0mm FEW
16:05 65.1 °F /  18.4 °C 35.2 °F /  1.8 °C 29.4in /  994.0hPa West 14.7mph /  23.7km/h 23mph /  37.0km/h 33% 0in /  0.0mm FEW
16:10 65.1 °F /  18.4 °C 35.2 °F /  1.8 °C 29.4in /  994.0hPa WSW 15.2mph /  24.5km/h 24.6mph /  39.6km/h 33% 0in /  0.0mm FEW
16:15 64.9 °F /  18.3 °C 35.1 °F /  1.7 °C 29.4in /  994.0hPa West 15.2mph /  24.5km/h 24.2mph /  38.9km/h 33% 0in /  0.0mm FEW
16:20 65.1 °F /  18.4 °C 33.6 °F /  0.9 °C 29.4in /  994.2hPa WSW 15.6mph /  25.1km/h 31.1mph /  50.0km/h 31% 0in /  0.0mm FEW
16:25 65.1 °F /  18.4 °C 32 °F /  0.0 °C 29.4in /  994.2hPa SW 15.6mph /  25.1km/h 25.3mph /  40.7km/h 29% 0in /  0.0mm FEW
16:30 65.5 °F /  18.6 °C 28.8 °F /  -1.8 °C 29.4in /  994.2hPa SSW 16.8mph /  27.0km/h 33.4mph /  53.7km/h 25% 0in /  0.0mm FEW
16:35 65.1 °F /  18.4 °C 30.4 °F /  -0.9 °C 29.4in /  994.1hPa WSW 16.8mph /  27.0km/h 24.2mph /  38.9km/h 27% 0in /  0.0mm FEW
16:40 65.1 °F /  18.4 °C 30.4 °F /  -0.9 °C 29.4in /  994.1hPa WSW 17.8mph /  28.6km/h 26.5mph /  42.6km/h 27% 0in /  0.0mm FEW
16:45 65.1 °F /  18.4 °C 28.4 °F /  -2.0 °C 29.4in /  994.1hPa WSW 17.8mph /  28.6km/h 27.6mph /  44.4km/h 25% 0in /  0.0mm FEW
16:50 65.1 °F /  18.4 °C 27.3 °F /  -2.6 °C 29.4in /  994.2hPa WSW 14.5mph /  23.3km/h 23mph /  37.0km/h 24% 0in /  0.0mm CLR
16:55 65.1 °F /  18.4 °C 27.3 °F /  -2.6 °C 29.4in /  994.2hPa SW 14.5mph /  23.3km/h 18.4mph /  29.6km/h 24% 0in /  0.0mm CLR
17:00 65.1 °F /  18.4 °C 27.3 °F /  -2.6 °C 29.4in /  994.2hPa WSW 13mph /  20.9km/h 26mph /  41.8km/h 24% 0in /  0.0mm CLR
17:05 64.8 °F /  18.2 °C 28 °F /  -2.2 °C 29.4in /  994.5hPa South 13mph /  20.9km/h 23mph /  37.0km/h 25% 0in /  0.0mm CLR
17:10 64.8 °F /  18.2 °C 28 °F /  -2.2 °C 29.4in /  994.5hPa West 14.7mph /  23.7km/h 24.2mph /  38.9km/h 25% 0in /  0.0mm CLR
17:15 64.8 °F /  18.2 °C 28.9 °F /  -1.7 °C 29.4in /  994.5hPa West 14.7mph /  23.7km/h 26.5mph /  42.6km/h 26% 0in /  0.0mm CLR
17:20 64.6 °F /  18.1 °C 28.9 °F /  -1.7 °C 29.4in /  994.4hPa WSW 13.5mph /  21.7km/h 13.8mph /  22.2km/h 26% 0in /  0.0mm CLR
17:25 64.4 °F /  18.0 °C 29.7 °F /  -1.3 °C 29.4in /  994.4hPa West 13.5mph /  21.7km/h 13.8mph /  22.2km/h 27% 0in /  0.0mm CLR
17:30 64.2 °F /  17.9 °C 29.5 °F /  -1.4 °C 29.4in /  994.4hPa WSW 9.7mph /  15.6km/h 18.4mph /  29.6km/h 27% 0in /  0.0mm CLR
17:35 64.2 °F /  17.9 °C 29.5 °F /  -1.4 °C 29.4in /  994.4hPa West 9.7mph /  15.6km/h 10.4mph /  16.7km/h 27% 0in /  0.0mm CLR
17:40 64 °F /  17.8 °C 29.5 °F /  -1.4 °C 29.4in /  994.4hPa WSW 10mph /  16.1km/h 19.6mph /  31.5km/h 27% 0in /  0.0mm CLR
17:45 63.9 °F /  17.7 °C 30 °F /  -1.1 °C 29.4in /  994.4hPa NW 10mph /  16.1km/h 16.1mph /  25.9km/h 28% 0in /  0.0mm CLR
17:50 63.9 °F /  17.7 °C 30.9 °F /  -0.6 °C 29.4in /  994.6hPa WSW 11.4mph /  18.3km/h 23mph /  37.0km/h 29% 0in /  0.0mm CLR
17:55 63.1 °F /  17.3 °C 32.7 °F /  0.4 °C 29.4in /  994.6hPa West 11.4mph /  18.3km/h 26.5mph /  42.6km/h 32% 0in /  0.0mm CLR
18:00 62.4 °F /  16.9 °C 32.9 °F /  0.5 °C 29.4in /  994.6hPa West 15mph /  24.1km/h 29mph /  46.7km/h 33% 0in /  0.0mm CLR
18:05 61.9 °F /  16.6 °C 34 °F /  1.1 °C 29.4in /  995.1hPa WNW 14.5mph /  23.3km/h 27.6mph /  44.4km/h 35% 0in /  0.0mm CLR
18:10 61.2 °F /  16.2 °C 33.3 °F /  0.7 °C 29.4in /  995.1hPa West 16.8mph /  27.0km/h 27.6mph /  44.4km/h 35% 0in /  0.0mm CLR
18:15 60.8 °F /  16.0 °C 33.6 °F /  0.9 °C 29.4in /  995.1hPa West 16.8mph /  27.0km/h 26.5mph /  42.6km/h 36% 0in /  0.0mm CLR
18:20 60.4 °F /  15.8 °C 32.5 °F /  0.3 °C 29.4in /  995.0hPa WSW 18.1mph /  29.1km/h 28.8mph /  46.3km/h 35% 0in /  0.0mm CLR
18:25 60.4 °F /  15.8 °C 33.3 °F /  0.7 °C 29.4in /  995.0hPa WSW 18.1mph /  29.1km/h 19.6mph /  31.5km/h 36% 0in /  0.0mm CLR
18:30 60.4 °F /  15.8 °C 32.5 °F /  0.3 °C 29.4in /  995.0hPa WSW 14.7mph /  23.7km/h 23mph /  37.0km/h 35% 0in /  0.0mm CLR
18:35 60.3 °F /  15.7 °C 32.5 °F /  0.3 °C 29.4in /  994.7hPa SW 14.7mph /  23.7km/h 19.6mph /  31.5km/h 35% 0in /  0.0mm CLR
18:40 60.3 °F /  15.7 °C 32.5 °F /  0.3 °C 29.4in /  994.7hPa SW 13mph /  20.9km/h 24.2mph /  38.9km/h 35% 0in /  0.0mm CLR
18:45 60.3 °F /  15.7 °C 32.5 °F /  0.3 °C 29.4in /  994.7hPa SW 13mph /  20.9km/h 15mph /  24.1km/h 35% 0in /  0.0mm CLR
18:50 60.1 °F /  15.6 °C 32.4 °F /  0.2 °C 29.4in /  994.8hPa SW 13mph /  20.9km/h 16.1mph /  25.9km/h 35% 0in /  0.0mm CLR
18:55 60.1 °F /  15.6 °C 33.1 °F /  0.6 °C 29.4in /  994.8hPa SW 13mph /  20.9km/h 5.8mph /  9.3km/h 36% 0in /  0.0mm CLR
19:00 59.9 °F /  15.5 °C 32.7 °F /  0.4 °C 29.4in /  994.8hPa SW 7mph /  11.3km/h 7mph /  11.3km/h 36% 0in /  0.0mm CLR
19:05 59.7 °F /  15.4 °C 32.7 °F /  0.4 °C 29.4in /  994.7hPa WSW 6.9mph /  11.1km/h 10.4mph /  16.7km/h 36% 0in /  0.0mm CLR
19:10 59.5 °F /  15.3 °C 32.5 °F /  0.3 °C 29.4in /  994.7hPa South 4.7mph /  7.6km/h 6.9mph /  11.1km/h 36% 0in /  0.0mm CLR
19:15 59.5 °F /  15.3 °C 32.5 °F /  0.3 °C 29.4in /  994.7hPa SSW 4.7mph /  7.6km/h 6.9mph /  11.1km/h 36% 0in /  0.0mm CLR
19:20 59.5 °F /  15.3 °C 32.5 °F /  0.3 °C 29.4in /  994.8hPa SSW 4.3mph /  6.9km/h 4.6mph /  7.4km/h 36% 0in /  0.0mm CLR
19:25 59.4 °F /  15.2 °C 33.1 °F /  0.6 °C 29.4in /  994.8hPa South 4.3mph /  6.9km/h 5.8mph /  9.3km/h 37% 0in /  0.0mm CLR
19:30 59.2 °F /  15.1 °C 33.6 °F /  0.9 °C 29.4in /  994.8hPa SSE 3.6mph /  5.8km/h 6.9mph /  11.1km/h 38% 0in /  0.0mm CLR
19:35 58.8 °F /  14.9 °C 33.3 °F /  0.7 °C 29.4in /  994.9hPa SE 3.6mph /  5.8km/h 4.6mph /  7.4km/h 38% 0in /  0.0mm CLR
19:40 58.6 °F /  14.8 °C 33.1 °F /  0.6 °C 29.4in /  994.9hPa WSW 4mph /  6.4km/h 6.9mph /  11.1km/h 38% 0in /  0.0mm CLR
19:45 58.5 °F /  14.7 °C 32.9 °F /  0.5 °C 29.4in /  994.9hPa WSW 4mph /  6.4km/h 6.9mph /  11.1km/h 38% 0in /  0.0mm CLR
19:50 58.3 °F /  14.6 °C 32.7 °F /  0.4 °C 29.4in /  995.8hPa SSW 4.3mph /  6.9km/h 5.8mph /  9.3km/h 38% 0in /  0.0mm CLR
19:55 58.3 °F /  14.6 °C 32.7 °F /  0.4 °C 29.4in /  995.8hPa SSW 4.3mph /  6.9km/h 6.9mph /  11.1km/h 38% 0in /  0.0mm CLR
20:00 58.5 °F /  14.7 °C 32.9 °F /  0.5 °C 29.4in /  995.8hPa SSW 5mph /  8.0km/h 6mph /  9.7km/h 38% 0in /  0.0mm CLR
20:05 58.6 °F /  14.8 °C 32.4 °F /  0.2 °C 29.4in /  995.8hPa WSW 4.7mph /  7.6km/h 8.1mph /  13.0km/h 37% 0in /  0.0mm CLR
20:10 59 °F /  15.0 °C 32.7 °F /  0.4 °C 29.4in /  995.8hPa WSW 4.3mph /  6.9km/h 8.1mph /  13.0km/h 37% 0in /  0.0mm CLR
20:15 59 °F /  15.0 °C 32.7 °F /  0.4 °C 29.4in /  995.8hPa SW 4.3mph /  6.9km/h 6.9mph /  11.1km/h 37% 0in /  0.0mm CLR
20:20 59.2 °F /  15.1 °C 32.9 °F /  0.5 °C 29.4in /  996.0hPa WSW 4.7mph /  7.6km/h 6.2mph /  10.0km/h 37% 0in /  0.0mm CLR
20:25 59.5 °F /  15.3 °C 32.5 °F /  0.3 °C 29.4in /  996.0hPa WSW 4.7mph /  7.6km/h 12.7mph /  20.4km/h 36% 0in /  0.0mm CLR
20:30 59.5 °F /  15.3 °C 34.5 °F /  1.4 °C 29.4in /  996.0hPa West 8.5mph /  13.7km/h 26.5mph /  42.6km/h 39% 0in /  0.0mm CLR
20:35 59.2 °F /  15.1 °C 35.4 °F /  1.9 °C 29.4in /  996.4hPa WSW 8.5mph /  13.7km/h 16.1mph /  25.9km/h 41% 0in /  0.0mm CLR
20:40 59 °F /  15.0 °C 35.2 °F /  1.8 °C 29.4in /  996.4hPa West 14.7mph /  23.7km/h 20.7mph /  33.3km/h 41% 0in /  0.0mm CLR
20:45 58.8 °F /  14.9 °C 35.2 °F /  1.8 °C 29.4in /  996.4hPa West 14.7mph /  23.7km/h 20.7mph /  33.3km/h 41% 0in /  0.0mm CLR
20:50 58.8 °F /  14.9 °C 35.8 °F /  2.1 °C 29.4in /  996.7hPa West 13.5mph /  21.7km/h 17.3mph /  27.8km/h 42% 0in /  0.0mm CLR
20:55 58.8 °F /  14.9 °C 35.8 °F /  2.1 °C 29.4in /  996.7hPa NW 13.5mph /  21.7km/h 24.2mph /  38.9km/h 42% 0in /  0.0mm CLR
21:00 58.5 °F /  14.7 °C 36.7 °F /  2.6 °C 29.4in /  996.7hPa West 15mph /  24.1km/h 28mph /  45.1km/h 44% 0in /  0.0mm CLR
21:05 57.9 °F /  14.4 °C 36.7 °F /  2.6 °C 29.4in /  996.8hPa WNW 14.7mph /  23.7km/h 20.7mph /  33.3km/h 45% 0in /  0.0mm CLR
21:10 57.6 °F /  14.2 °C 36.9 °F /  2.7 °C 29.4in /  996.8hPa NW 14.7mph /  23.7km/h 20.7mph /  33.3km/h 46% 0in /  0.0mm CLR
21:15 57.4 °F /  14.1 °C 37.2 °F /  2.9 °C 29.4in /  996.8hPa WSW 14.7mph /  23.7km/h 20.7mph /  33.3km/h 47% 0in /  0.0mm CLR
21:20 57 °F /  13.9 °C 37.6 °F /  3.1 °C 29.4in /  996.8hPa WNW 13.7mph /  22.0km/h 18.4mph /  29.6km/h 48% 0in /  0.0mm CLR
21:25 56.7 °F /  13.7 °C 37.2 °F /  2.9 °C 29.4in /  996.8hPa WNW 13.7mph /  22.0km/h 15mph /  24.1km/h 48% 0in /  0.0mm CLR
21:30 56.5 °F /  13.6 °C 37.6 °F /  3.1 °C 29.4in /  996.8hPa West 11.2mph /  18.0km/h 16.1mph /  25.9km/h 49% 0in /  0.0mm CLR
21:35 56.3 °F /  13.5 °C 37.9 °F /  3.3 °C 29.4in /  996.9hPa WNW 11.2mph /  18.0km/h 17.3mph /  27.8km/h 50% 0in /  0.0mm CLR
21:40 55.9 °F /  13.3 °C 38.1 °F /  3.4 °C 29.4in /  996.9hPa WNW 10.7mph /  17.2km/h 15mph /  24.1km/h 51% 0in /  0.0mm CLR
21:45 55.6 °F /  13.1 °C 38.1 °F /  3.4 °C 29.4in /  996.9hPa West 10.7mph /  17.2km/h 13.8mph /  22.2km/h 52% 0in /  0.0mm CLR
21:50 55.4 °F /  13.0 °C 38.1 °F /  3.4 °C 29.5in /  997.3hPa West 9.2mph /  14.8km/h 16.1mph /  25.9km/h 52% 0in /  0.0mm CLR
21:55 55.4 °F /  13.0 °C 38.1 °F /  3.4 °C 29.5in /  997.3hPa West 9.2mph /  14.8km/h 17.3mph /  27.8km/h 52% 0in /  0.0mm CLR
22:00 55.4 °F /  13.0 °C 38.1 °F /  3.4 °C 29.5in /  997.3hPa West 10mph /  16.1km/h 17mph /  27.4km/h 52% 0in /  0.0mm CLR
22:05 55.6 °F /  13.1 °C 37.8 °F /  3.2 °C 29.5in /  997.3hPa WSW 10mph /  16.1km/h 16.1mph /  25.9km/h 51% 0in /  0.0mm CLR
22:10 55.4 °F /  13.0 °C 37.6 °F /  3.1 °C 29.5in /  997.3hPa WSW 9.7mph /  15.6km/h 20.7mph /  33.3km/h 51% 0in /  0.0mm CLR
22:15 55.4 °F /  13.0 °C 37 °F /  2.8 °C 29.5in /  997.3hPa SW 9.7mph /  15.6km/h 24.2mph /  38.9km/h 50% 0in /  0.0mm CLR
22:20 55.2 °F /  12.9 °C 36.3 °F /  2.4 °C 29.5in /  997.5hPa WSW 13.5mph /  21.7km/h 21.9mph /  35.2km/h 49% 0in /  0.0mm CLR
22:25 55.2 °F /  12.9 °C 36 °F /  2.2 °C 29.5in /  997.5hPa WSW 13.5mph /  21.7km/h 18.4mph /  29.6km/h 48% 0in /  0.0mm CLR
22:30 55 °F /  12.8 °C 35.8 °F /  2.1 °C 29.5in /  997.5hPa West 13.5mph /  21.7km/h 20.7mph /  33.3km/h 48% 0in /  0.0mm CLR
22:35 55 °F /  12.8 °C 35.8 °F /  2.1 °C 29.5in /  997.4hPa West 13.5mph /  21.7km/h 21.9mph /  35.2km/h 48% 0in /  0.0mm CLR
22:40 55 °F /  12.8 °C 35.8 °F /  2.1 °C 29.5in /  997.4hPa WSW 13mph /  20.9km/h 16.1mph /  25.9km/h 48% 0in /  0.0mm CLR
22:45 55 °F /  12.8 °C 35.8 °F /  2.1 °C 29.5in /  997.4hPa WSW 13mph /  20.9km/h 16.1mph /  25.9km/h 48% 0in /  0.0mm CLR
22:50 54.9 °F /  12.7 °C 35.4 °F /  1.9 °C 29.5in /  997.6hPa SW 10.7mph /  17.2km/h 13.8mph /  22.2km/h 48% 0in /  0.0mm CLR
22:55 54.9 °F /  12.7 °C 35.4 °F /  1.9 °C 29.5in /  997.6hPa WSW 10.7mph /  17.2km/h 13mph /  20.9km/h 48% 0in /  0.0mm CLR
23:00 54.9 °F /  12.7 °C 35.1 °F /  1.7 °C 29.5in /  997.6hPa WSW 10mph /  16.1km/h 19mph /  30.6km/h 47% 0in /  0.0mm CLR
23:05 54.9 °F /  12.7 °C 34.5 °F /  1.4 °C 29.5in /  997.9hPa WSW 10mph /  16.1km/h 15mph /  24.1km/h 46% 0in /  0.0mm CLR
23:10 54.9 °F /  12.7 °C 34 °F /  1.1 °C 29.5in /  997.9hPa SW 10.2mph /  16.4km/h 17.3mph /  27.8km/h 45% 0in /  0.0mm CLR
23:15 54.9 °F /  12.7 °C 34 °F /  1.1 °C 29.5in /  997.9hPa SW 10.2mph /  16.4km/h 13.8mph /  22.2km/h 45% 0in /  0.0mm CLR
23:20 54.7 °F /  12.6 °C 34.3 °F /  1.3 °C 29.5in /  998.1hPa SW 9.7mph /  15.6km/h 12.3mph /  19.8km/h 46% 0in /  0.0mm CLR
23:25 54.5 °F /  12.5 °C 33.6 °F /  0.9 °C 29.5in /  998.1hPa SW 9.7mph /  15.6km/h 12.7mph /  20.4km/h 45% 0in /  0.0mm CLR
23:30 54.7 °F /  12.6 °C 33.3 °F /  0.7 °C 29.5in /  998.1hPa SSW 8.7mph /  14.0km/h 15mph /  24.1km/h 44% 0in /  0.0mm CLR
23:35 54.9 °F /  12.7 °C 33.3 °F /  0.7 °C 29.5in /  998.2hPa SW 8.7mph /  14.0km/h 13.8mph /  22.2km/h 44% 0in /  0.0mm CLR
23:40 55 °F /  12.8 °C 32.4 °F /  0.2 °C 29.5in /  998.2hPa SW 10mph /  16.1km/h 17.3mph /  27.8km/h 42% 0in /  0.0mm CLR
23:45 55 °F /  12.8 °C 32.4 °F /  0.2 °C 29.5in /  998.2hPa West 10mph /  16.1km/h 13.5mph /  21.7km/h 42% 0in /  0.0mm CLR
23:50 55.2 °F /  12.9 °C 33.1 °F /  0.6 °C 29.5in /  998.2hPa WSW 11.4mph /  18.3km/h 11.5mph /  18.5km/h 43% 0in /  0.0mm CLR
23:55 55.2 °F /  12.9 °C 32.5 °F /  0.3 °C 29.5in /  998.2hPa SSW 11.4mph /  18.3km/h 21.9mph /  35.2km/h 42% 0in /  0.0mm CLR
Murcia-Puente Tocinos, España
Compliments of Weather Underground - 2.75 mb

La estación de MeteoMurcia.com, publica sus datos en los siguientes proyectos:

Weather Underground PWS IMURCIAP2 Meteoclimatic www.awekas.at

W3Counter
Web Analytics